Time;durP1;ratioP1;P1;durP2;ratioP2;P2;SDS_P1;SDS_P2;PMS_P1;PMS_P2;Temp;Humidity;BMP_temperature;BMP_pressure;BME280_temperature;BME280_humidity;BME280_pressure;Samples;Min_cycle;Max_cycle;Signal;HPM_P1;HPM_P2
2021/10/04 00:00:23;;;;;;;4.40;1.13;;;;;;;10.71;93.37;101172.09;5053667;28;20025;-35
2021/10/04 00:02:48;;;;;;;2.30;1.30;;;;;;;10.74;93.40;101166.25;5053213;28;20021;-35
2021/10/04 00:05:13;;;;;;;4.67;1.33;;;;;;;10.75;93.29;101176.00;5052813;28;20100;-34
2021/10/04 00:07:39;;;;;;;3.10;1.00;;;;;;;10.71;92.99;101201.03;5053151;28;20017;-35
2021/10/04 00:10:10;;;;;;;6.68;1.35;;;;;;;10.70;93.36;101202.91;5052719;28;20095;-34
2021/10/04 00:12:36;;;;;;;3.60;1.10;;;;;;;10.69;93.32;101189.63;5053045;28;20025;-35
2021/10/04 00:15:03;;;;;;;1.80;1.00;;;;;;;10.68;93.16;101182.53;5052716;28;20416;-35
2021/10/04 00:17:28;;;;;;;3.20;0.98;;;;;;;10.70;93.41;101196.66;5052892;28;20070;-35
2021/10/04 00:19:54;;;;;;;2.00;0.90;;;;;;;10.68;93.18;101199.56;5052899;28;20029;-35
2021/10/04 00:22:19;;;;;;;3.63;0.97;;;;;;;10.67;93.31;101205.22;5053213;28;20093;-35
2021/10/04 00:24:44;;;;;;;5.03;1.00;;;;;;;10.69;93.31;101216.66;5052985;28;20283;-35
2021/10/04 00:27:09;;;;;;;6.23;1.30;;;;;;;10.66;93.44;101225.22;5053009;28;20438;-34
2021/10/04 00:29:35;;;;;;;5.23;1.10;;;;;;;10.68;93.66;101239.31;5053347;28;20357;-34
2021/10/04 00:32:00;;;;;;;3.57;1.20;;;;;;;10.65;93.33;101227.09;5053550;28;20021;-35
2021/10/04 00:34:25;;;;;;;2.37;0.90;;;;;;;10.64;93.39;101222.72;5052776;28;20087;-35
2021/10/04 00:36:51;;;;;;;4.60;1.03;;;;;;;10.64;93.67;101227.28;5053077;28;20025;-35
2021/10/04 00:39:16;;;;;;;9.63;1.37;;;;;;;10.66;93.60;101219.78;5053527;28;20021;-35
2021/10/04 00:41:43;;;;;;;3.70;1.10;;;;;;;10.54;93.62;101198.03;5052732;28;20070;-34
2021/10/04 00:44:09;;;;;;;3.25;1.00;;;;;;;10.63;93.42;101222.94;5052641;28;20292;-35
2021/10/04 00:46:34;;;;;;;4.43;1.10;;;;;;;10.52;94.23;101203.69;5053312;28;20079;-35
2021/10/04 00:49:00;;;;;;;2.83;0.87;;;;;;;10.57;94.23;101228.19;5052641;28;20484;-35
2021/10/04 00:51:25;;;;;;;3.70;1.00;;;;;;;10.59;93.94;101236.09;5052649;28;20247;-35
2021/10/04 00:53:53;;;;;;;6.63;1.42;;;;;;;10.56;93.78;101242.75;5052237;28;20393;-35
2021/10/04 00:56:20;;;;;;;4.00;1.40;;;;;;;10.58;93.64;101242.53;5054243;28;20021;-35
2021/10/04 00:58:46;;;;;;;4.60;1.30;;;;;;;10.61;94.37;101241.28;5056474;28;20365;-35
2021/10/04 01:01:12;;;;;;;2.35;0.85;;;;;;;10.61;94.41;101238.56;5056281;28;20112;-35
2021/10/04 01:03:37;;;;;;;3.87;0.90;;;;;;;10.53;94.18;101234.25;5056338;28;20059;-35
2021/10/04 01:06:04;;;;;;;2.97;1.30;;;;;;;10.60;94.50;101253.16;5056587;28;20108;-35
2021/10/04 01:08:29;;;;;;;2.60;1.05;;;;;;;10.55;94.22;101259.22;5056224;28;20666;-35
2021/10/04 01:10:55;;;;;;;4.80;1.40;;;;;;;10.52;94.61;101260.47;5056597;28;20085;-35
2021/10/04 01:13:22;;;;;;;3.88;1.33;;;;;;;10.53;94.60;101259.41;5055039;28;20047;-35
2021/10/04 01:15:47;;;;;;;4.57;1.30;;;;;;;10.52;94.68;101248.81;5056222;28;20116;-35
2021/10/04 01:18:13;;;;;;;6.03;1.38;;;;;;;10.49;94.61;101235.75;5056193;28;20119;-35
2021/10/04 01:20:38;;;;;;;7.97;1.10;;;;;;;10.47;94.67;101232.44;5056141;28;20047;-35
2021/10/04 01:23:05;;;;;;;3.40;1.40;;;;;;;10.47;94.64;101232.44;5056111;28;20572;-35
2021/10/04 01:25:30;;;;;;;;;;;;;;;10.57;94.52;101249.81;5055499;28;20377;-35
2021/10/04 01:27:56;;;;;;;3.65;1.30;;;;;;;10.52;94.43;101257.75;5055619;28;19909;-34
2021/10/04 01:30:25;;;;;;;3.42;1.10;;;;;;;10.46;94.64;101258.66;5055710;28;20400;-34
2021/10/04 01:32:51;;;;;;;3.75;1.17;;;;;;;10.46;95.07;101260.53;5056474;28;20036;-35
2021/10/04 01:35:17;;;;;;;3.00;1.45;;;;;;;10.41;94.95;101268.47;5055904;28;20040;-34
2021/10/04 01:37:43;;;;;;;3.95;1.23;;;;;;;10.40;94.98;101264.13;5055903;28;20024;-35
2021/10/04 01:40:10;;;;;;;5.07;1.40;;;;;;;10.43;95.24;101266.38;5055750;28;20040;-34
2021/10/04 01:42:37;;;;;;;3.03;1.35;;;;;;;10.40;95.04;101264.13;5055990;28;20033;-35
2021/10/04 01:45:06;;;;;;;3.50;1.00;;;;;;;10.43;95.14;101258.25;5055999;28;20442;-34
2021/10/04 01:47:31;;;;;;;5.65;1.48;;;;;;;10.38;95.17;101249.97;5055916;28;20025;-34
2021/10/04 01:49:57;;;;;;;7.37;1.60;;;;;;;10.36;95.19;101258.31;5055344;28;20032;-35
2021/10/04 01:52:23;;;;;;;;;;;;;;;10.43;94.71;101256.38;5055687;28;20017;-35
2021/10/04 01:54:48;;;;;;;5.03;1.10;;;;;;;10.36;95.31;101257.50;5055225;28;19951;-35
2021/10/04 01:57:13;;;;;;;5.20;1.50;;;;;;;10.25;95.65;101240.09;5055576;28;20025;-34
2021/10/04 01:59:39;;;;;;;5.07;1.53;;;;;;;10.35;95.44;101255.84;5055462;28;20070;-35
2021/10/04 02:02:05;;;;;;;4.57;1.20;;;;;;;10.34;95.11;101260.41;5055892;28;20110;-34
2021/10/04 02:04:30;;;;;;;4.72;1.27;;;;;;;10.36;95.65;101263.72;5055286;28;20369;-34
2021/10/04 02:06:55;;;;;;;3.60;1.23;;;;;;;10.32;95.20;101244.41;5055360;28;20074;-35
2021/10/04 02:09:21;;;;;;;4.07;1.30;;;;;;;10.34;95.50;101260.41;5054914;28;20052;-35
2021/10/04 02:11:47;;;;;;;4.20;1.40;;;;;;;10.23;95.21;101253.78;5055199;28;20025;-35
2021/10/04 02:14:13;;;;;;;2.50;1.38;;;;;;;10.30;95.66;101260.03;5055030;28;20762;-35
2021/10/04 02:16:38;;;;;;;3.42;1.23;;;;;;;10.31;95.76;101260.84;5055173;28;20454;-34
2021/10/04 02:19:04;;;;;;;5.85;1.45;;;;;;;10.18;95.53;101241.97;5055099;28;20044;-34
2021/10/04 02:21:29;;;;;;;7.05;1.58;;;;;;;10.16;95.57;101247.63;5055610;28;20025;-35
2021/10/04 02:23:54;;;;;;;4.13;1.13;;;;;;;10.25;95.87;101264.44;5055136;28;20094;-34
2021/10/04 02:26:20;;;;;;;2.63;1.07;;;;;;;10.23;95.38;101263.78;5053791;28;20279;-35
2021/10/04 02:28:45;;;;;;;4.83;1.17;;;;;;;10.20;95.47;101270.47;5054886;28;20031;-34
2021/10/04 02:31:10;;;;;;;3.03;1.30;;;;;;;10.14;95.61;101246.16;5055082;28;20100;-34
2021/10/04 02:33:36;;;;;;;6.73;1.67;;;;;;;10.16;95.54;101254.91;5054677;28;20024;-34
2021/10/04 02:36:01;;;;;;;2.90;1.20;;;;;;;10.09;95.42;101244.13;5054413;28;20037;-34
2021/10/04 02:38:26;;;;;;;5.00;1.30;;;;;;;10.13;95.83;101256.16;5054851;28;20103;-34
2021/10/04 02:40:52;;;;;;;4.73;1.27;;;;;;;10.09;95.93;101246.00;5055233;28;20459;-34
2021/10/04 02:43:21;;;;;;;3.53;1.30;;;;;;;10.10;96.02;101261.16;5054611;28;20036;-35
2021/10/04 02:45:50;;;;;;;5.43;1.20;;;;;;;10.10;95.90;101270.09;5055220;28;20028;-35
2021/10/04 02:48:17;;;;;;;3.00;1.05;;;;;;;10.10;96.37;101253.03;5054735;28;20017;-35
2021/10/04 02:50:44;;;;;;;5.35;1.58;;;;;;;10.07;95.60;101249.75;5054428;28;20060;-34
2021/10/04 02:53:09;;;;;;;2.42;1.10;;;;;;;10.10;96.09;101263.84;5054811;28;20029;-34
2021/10/04 02:55:34;;;;;;;8.03;1.30;;;;;;;10.05;96.21;101249.16;5054675;28;20063;-34
2021/10/04 02:58:00;;;;;;;2.50;1.20;;;;;;;10.11;96.31;101265.53;5036238;28;20033;-35
2021/10/04 03:00:26;;;;;;;7.87;1.43;;;;;;;10.12;96.30;101265.31;5054275;28;20393;-34
2021/10/04 03:02:51;;;;;;;7.95;1.45;;;;;;;10.02;96.18;101244.16;5054944;28;20317;-34
2021/10/04 03:05:16;;;;;;;4.80;1.10;;;;;;;10.16;96.57;101273.81;5054230;28;20024;-35
2021/10/04 03:07:42;;;;;;;2.07;1.00;;;;;;;10.16;96.24;101263.00;5054921;28;20302;-35
2021/10/04 03:10:08;;;;;;;5.53;1.43;;;;;;;10.17;96.12;101278.16;5054417;28;20363;-34
2021/10/04 03:12:34;;;;;;;3.90;1.25;;;;;;;10.13;95.79;101275.06;5053709;28;20024;-34
2021/10/04 03:15:00;;;;;;;4.30;1.30;;;;;;;10.06;96.11;101269.72;5053973;28;20032;-35
2021/10/04 03:17:25;;;;;;;;;;;;;;;10.22;95.82;101294.56;5054709;28;20044;-35
2021/10/04 03:19:51;;;;;;;5.38;1.23;;;;;;;10.15;95.86;101288.34;5052921;28;19908;-34
2021/10/04 03:22:16;;;;;;;6.83;1.40;;;;;;;10.19;95.95;101298.50;5053930;28;20048;-34
2021/10/04 03:24:42;;;;;;;3.30;1.30;;;;;;;10.17;95.82;101295.22;5054043;28;20283;-34
2021/10/04 03:27:07;;;;;;;3.55;1.25;;;;;;;10.16;95.90;101285.44;5053729;28;20087;-35
2021/10/04 03:29:33;;;;;;;4.18;1.30;;;;;;;10.21;95.65;101291.03;5053662;28;20017;-34
2021/10/04 03:31:58;;;;;;;4.50;1.30;;;;;;;10.25;95.67;101288.75;5053504;28;20454;-34
2021/10/04 03:34:24;;;;;;;3.57;1.27;;;;;;;10.25;95.48;101299.56;5053672;28;20063;-35
2021/10/04 03:36:50;;;;;;;5.43;1.23;;;;;;;10.18;95.43;101285.22;5053418;28;20025;-35
2021/10/04 03:39:15;;;;;;;;;;;;;;;10.30;95.53;101299.75;5054128;28;20481;-34
2021/10/04 03:41:41;;;;;;;5.60;1.30;;;;;;;10.25;95.05;101302.28;5053834;28;19944;-35
2021/10/04 03:44:07;;;;;;;2.77;1.13;;;;;;;10.28;94.92;101321.56;5053741;28;20810;-35
2021/10/04 03:46:32;;;;;;;3.08;1.30;;;;;;;10.18;94.96;101306.84;5053325;28;20299;-34
2021/10/04 03:48:58;;;;;;;6.50;1.40;;;;;;;10.27;95.54;101321.78;5053711;28;20025;-34
2021/10/04 03:51:23;;;;;;;2.80;1.15;;;;;;;10.28;95.20;101321.56;5053441;28;20243;-35
2021/10/04 03:53:49;;;;;;;2.20;1.17;;;;;;;10.28;95.08;101307.22;5054413;28;20021;-35
2021/10/04 03:56:15;;;;;;;4.95;1.00;;;;;;;10.32;94.69;101316.56;5053621;28;20036;-35
2021/10/04 03:58:40;;;;;;;5.53;1.70;;;;;;;10.25;94.71;101305.81;5051989;28;20139;-34
2021/10/04 04:01:06;;;;;;;2.97;1.00;;;;;;;10.32;94.60;101321.97;5053701;28;20029;-35
2021/10/04 04:03:32;;;;;;;6.82;1.45;;;;;;;10.37;94.52;101332.13;5053167;28;20537;-35
2021/10/04 04:05:57;;;;;;;3.10;1.10;;;;;;;10.39;93.89;101328.16;5053401;28;20083;-35
2021/10/04 04:08:23;;;;;;;3.87;1.00;;;;;;;10.39;94.14;101327.31;5052915;28;20111;-34
2021/10/04 04:10:49;;;;;;;;;;;;;;;10.42;94.11;101338.53;5053475;28;20029;-34
2021/10/04 04:13:14;;;;;;;4.70;1.15;;;;;;;10.41;93.93;101342.28;5053205;28;19904;-35
2021/10/04 04:15:40;;;;;;;3.10;1.00;;;;;;;10.39;93.89;101344.38;5052848;28;20017;-34
2021/10/04 04:18:05;;;;;;;3.03;1.35;;;;;;;10.41;93.66;101346.88;5053570;28;20123;-34
2021/10/04 04:20:31;;;;;;;4.93;1.20;;;;;;;10.42;93.93;101349.34;5052989;28;20450;-35
2021/10/04 04:22:57;;;;;;;4.60;1.05;;;;;;;10.44;93.76;101346.41;5053211;28;20533;-35
2021/10/04 04:25:22;;;;;;;5.63;1.20;;;;;;;10.42;93.66;101340.41;5053569;28;20056;-35
2021/10/04 04:27:47;;;;;;;6.47;1.20;;;;;;;10.43;93.21;101339.38;5052854;28;20040;-34
2021/10/04 04:30:14;;;;;;;4.13;1.17;;;;;;;10.45;93.51;101342.69;5053006;28;20104;-35
2021/10/04 04:32:42;;;;;;;7.57;1.38;;;;;;;10.45;93.50;101331.88;5059253;28;20100;-34
2021/10/04 04:35:08;;;;;;;4.90;1.23;;;;;;;10.37;93.43;101326.72;5059395;28;20017;-35
2021/10/04 04:37:37;;;;;;;5.72;1.35;;;;;;;10.40;93.49;101351.47;5059896;28;20021;-34
2021/10/04 04:40:08;;;;;;;5.55;1.20;;;;;;;10.34;93.62;101338.78;5058063;28;20151;-35
2021/10/04 04:42:34;;;;;;;4.85;1.50;;;;;;;10.33;93.31;101334.44;5059417;28;20031;-34
2021/10/04 04:44:59;;;;;;;5.30;1.35;;;;;;;10.40;93.35;101356.88;5059650;28;20104;-35
2021/10/04 04:47:25;;;;;;;5.97;1.40;;;;;;;10.37;93.75;101368.09;5059558;28;20028;-34
2021/10/04 04:49:50;;;;;;;3.22;1.20;;;;;;;10.43;93.51;101371.81;5059349;28;20100;-35
2021/10/04 04:52:16;;;;;;;4.40;1.03;;;;;;;10.28;93.19;101351.31;5059593;28;20029;-34
2021/10/04 04:54:41;;;;;;;4.70;1.40;;;;;;;10.34;93.44;101362.28;5059751;28;20025;-35
2021/10/04 04:57:07;;;;;;;4.50;1.00;;;;;;;10.40;93.31;101378.50;5059549;28;20032;-35
2021/10/04 04:59:33;;;;;;;2.95;1.00;;;;;;;10.43;93.22;101374.50;5058171;28;20737;-35
2021/10/04 05:01:58;;;;;;;4.40;1.15;;;;;;;10.42;93.43;101373.69;5059069;28;20119;-35
2021/10/04 05:04:24;;;;;;;6.60;1.65;;;;;;;10.38;93.40;101377.88;5058912;28;20025;-35
2021/10/04 05:06:49;;;;;;;3.97;1.30;;;;;;;10.43;93.04;101390.75;5059397;28;20051;-35
2021/10/04 05:09:15;;;;;;;7.33;1.33;;;;;;;10.31;93.17;101369.81;5059011;28;20031;-35
2021/10/04 05:11:41;;;;;;;2.80;1.05;;;;;;;10.39;93.29;101382.22;5059496;28;20338;-35
2021/10/04 05:14:06;;;;;;;4.10;1.30;;;;;;;10.41;93.66;101363.94;5059691;28;20051;-35
2021/10/04 05:16:31;;;;;;;4.07;1.10;;;;;;;10.38;93.62;101369.75;5059480;28;20032;-35
2021/10/04 05:18:57;;;;;;;4.77;1.30;;;;;;;10.37;93.47;101378.09;5059456;28;20021;-35
2021/10/04 05:21:22;;;;;;;4.25;1.23;;;;;;;10.40;93.43;101383.91;5058907;28;20021;-35
2021/10/04 05:23:48;;;;;;;5.10;1.17;;;;;;;10.39;92.99;101379.50;5059341;28;20028;-35
2021/10/04 05:26:13;;;;;;;8.10;1.20;;;;;;;10.40;93.20;101383.91;5059813;28;20383;-35
2021/10/04 05:28:39;;;;;;;4.17;1.20;;;;;;;10.41;93.25;101390.97;5058991;28;20032;-35
2021/10/04 05:31:04;;;;;;;7.75;1.88;;;;;;;10.41;93.12;101387.44;5059628;28;20040;-35
2021/10/04 05:33:30;;;;;;;5.38;1.13;;;;;;;10.38;93.14;101399.50;5058766;28;20105;-35
2021/10/04 05:35:55;;;;;;;2.80;1.03;;;;;;;10.40;93.15;101394.72;5058236;28;20216;-35
2021/10/04 05:38:20;;;;;;;3.20;1.30;;;;;;;10.40;92.49;101405.53;5059310;28;20024;-35
2021/10/04 05:40:46;;;;;;;4.55;1.15;;;;;;;10.41;93.08;101393.66;5058651;28;20031;-35
2021/10/04 05:43:11;;;;;;;4.57;1.23;;;;;;;10.41;92.93;101382.84;5056453;28;20032;-35
2021/10/04 05:45:37;;;;;;;2.63;1.00;;;;;;;10.43;92.71;101405.09;5056001;28;20028;-35
2021/10/04 05:48:03;;;;;;;5.53;1.30;;;;;;;10.43;92.25;101406.97;5055943;28;20048;-35
2021/10/04 05:50:28;;;;;;;2.33;1.00;;;;;;;10.41;92.20;101409.88;5055851;28;20021;-35
2021/10/04 05:52:54;;;;;;;4.30;1.08;;;;;;;10.42;92.26;101419.66;5056133;28;20442;-35
2021/10/04 05:55:19;;;;;;;4.70;1.30;;;;;;;10.37;92.42;101408.66;5055555;28;20434;-35
2021/10/04 05:57:45;;;;;;;4.35;1.33;;;;;;;10.44;92.40;101414.88;5055762;28;20036;-35
2021/10/04 06:00:12;;;;;;;3.83;1.33;;;;;;;10.42;92.14;101414.25;5055455;28;20449;-35
2021/10/04 06:02:38;;;;;;;3.22;1.10;;;;;;;10.43;92.18;101417.78;5055958;28;20013;-35
2021/10/04 06:05:05;;;;;;;3.27;0.87;;;;;;;10.44;91.99;101422.13;5055065;28;20419;-35
2021/10/04 06:07:31;;;;;;;4.60;1.05;;;;;;;10.40;91.91;101416.34;5055518;28;20314;-35
2021/10/04 06:09:56;;;;;;;7.73;1.93;;;;;;;10.44;91.89;101428.41;5055817;28;20434;-35
2021/10/04 06:12:26;;;;;;;6.20;1.03;;;;;;;10.45;92.08;101429.22;5055903;28;20357;-35
2021/10/04 06:14:53;;;;;;;5.30;1.10;;;;;;;10.47;91.67;101438.75;5055279;28;20017;-35
2021/10/04 06:17:19;;;;;;;3.92;1.02;;;;;;;10.47;91.75;101436.06;5055395;28;20446;-35
2021/10/04 06:19:44;;;;;;;4.43;1.30;;;;;;;10.48;91.78;101445.00;5055037;28;20072;-35
2021/10/04 06:22:09;;;;;;;2.20;1.10;;;;;;;10.51;91.49;101458.09;5055106;28;20039;-35
2021/10/04 06:24:35;;;;;;;5.73;1.00;;;;;;;10.52;91.34;101457.88;5055129;28;20048;-35
2021/10/04 06:27:00;;;;;;;4.93;1.20;;;;;;;10.53;91.39;101467.63;5055410;28;20275;-35
2021/10/04 06:29:25;;;;;;;4.10;0.97;;;;;;;10.56;91.75;101469.91;5054644;28;20035;-35
2021/10/04 06:31:51;;;;;;;4.70;1.10;;;;;;;10.49;91.40;101469.13;5055208;28;20027;-35
2021/10/04 06:34:16;;;;;;;5.60;1.53;;;;;;;10.62;91.27;101486.31;5054987;28;20021;-35
2021/10/04 06:36:41;;;;;;;1.93;1.03;;;;;;;10.65;90.88;101478.63;5055026;28;20374;-35
2021/10/04 06:39:07;;;;;;;4.35;1.10;;;;;;;10.70;90.38;101486.09;5055149;28;20030;-35
2021/10/04 06:41:32;;;;;;;5.13;0.98;;;;;;;10.72;90.30;101482.09;5055032;28;20033;-35
2021/10/04 06:43:58;;;;;;;5.27;1.03;;;;;;;10.74;90.43;101490.03;5054358;28;20052;-35
2021/10/04 06:46:23;;;;;;;7.10;1.40;;;;;;;10.74;90.77;101490.84;5054876;28;20100;-35
2021/10/04 06:48:48;;;;;;;6.30;1.43;;;;;;;10.72;90.08;101479.41;5054448;28;20284;-35
2021/10/04 06:51:14;;;;;;;5.23;0.93;;;;;;;10.75;90.33;101491.69;5054593;28;20373;-35
2021/10/04 06:53:39;;;;;;;3.33;0.97;;;;;;;10.77;89.74;101497.69;5054455;28;20040;-35
2021/10/04 06:56:04;;;;;;;4.03;0.90;;;;;;;10.76;90.02;101509.56;5054218;28;20469;-35
2021/10/04 06:58:30;;;;;;;4.90;1.27;;;;;;;10.76;89.87;101502.28;5053253;28;20029;-35
2021/10/04 07:00:55;;;;;;;5.30;1.17;;;;;;;10.75;89.95;101508.75;5054641;28;20029;-35
2021/10/04 07:03:21;;;;;;;5.00;1.27;;;;;;;10.73;90.11;101504.56;5054046;28;20513;-35
2021/10/04 07:05:48;;;;;;;5.20;0.90;;;;;;;10.70;90.07;101502.31;5054571;28;20021;-35
2021/10/04 07:08:13;;;;;;;4.95;1.10;;;;;;;10.67;89.92;101505.44;5054630;28;20119;-35
2021/10/04 07:10:39;;;;;;;4.80;1.20;;;;;;;10.66;90.23;101496.50;5054680;28;20107;-35
2021/10/04 07:13:05;;;;;;;7.60;1.13;;;;;;;10.66;90.09;101501.09;5054595;28;20017;-35
2021/10/04 07:15:30;;;;;;;3.67;0.75;;;;;;;10.62;90.56;101500.69;5054098;28;20048;-35
2021/10/04 07:17:56;;;;;;;4.07;1.17;;;;;;;10.62;90.49;101499.84;5052876;28;20032;-35
2021/10/04 07:20:21;;;;;;;2.77;1.00;;;;;;;10.64;90.51;101504.00;5054282;28;20072;-35
2021/10/04 07:22:46;;;;;;;2.97;0.90;;;;;;;10.62;90.11;101497.97;5053916;28;20056;-35
2021/10/04 07:25:13;;;;;;;4.43;0.90;;;;;;;10.62;90.46;101510.66;5053712;28;20056;-35
2021/10/04 07:27:38;;;;;;;;;;;;;;;10.66;90.46;101514.59;5054219;28;20029;-35
2021/10/04 07:30:05;;;;;;;3.45;1.10;;;;;;;10.64;90.54;101505.84;5053418;28;19915;-35
2021/10/04 07:32:30;;;;;;;6.68;1.10;;;;;;;10.63;90.31;101509.63;5053220;28;20028;-35
2021/10/04 07:34:56;;;;;;;6.53;1.23;;;;;;;10.62;90.33;101518.78;5053351;28;20016;-40
2021/10/04 07:37:21;;;;;;;5.40;1.00;;;;;;;10.61;90.64;101515.25;5053715;28;20035;-35
2021/10/04 07:39:46;;;;;;;3.73;1.30;;;;;;;10.52;90.76;101503.00;5054121;28;20099;-35
2021/10/04 07:42:12;;;;;;;5.37;1.10;;;;;;;10.44;90.46;101492.44;5053773;28;20032;-35
2021/10/04 07:44:37;;;;;;;2.97;1.10;;;;;;;10.61;91.27;101519.84;5053452;28;20021;-35
2021/10/04 07:47:03;;;;;;;6.53;1.80;;;;;;;10.64;90.82;101524.78;5053151;28;20472;-35
2021/10/04 07:49:29;;;;;;;5.15;1.23;;;;;;;10.63;90.76;101512.31;5053439;28;20025;-35
2021/10/04 07:51:56;;;;;;;4.90;1.10;;;;;;;10.80;90.56;101530.56;5053394;28;20108;-35
2021/10/04 07:54:22;;;;;;;5.82;1.40;;;;;;;10.85;89.98;101520.97;5052993;28;20215;-35
2021/10/04 07:56:47;;;;;;;5.60;1.10;;;;;;;11.04;89.95;101528.97;5052957;28;20113;-35
2021/10/04 07:59:12;;;;;;;4.90;1.00;;;;;;;11.16;89.50;101525.56;5053226;28;20028;-35
2021/10/04 08:01:38;;;;;;;4.23;1.33;;;;;;;11.25;89.05;101526.97;5053429;28;20028;-35
2021/10/04 08:04:04;;;;;;;3.50;1.23;;;;;;;11.35;89.05;101524.59;5053106;28;20025;-35
2021/10/04 08:06:29;;;;;;;3.47;1.27;;;;;;;11.44;89.17;101517.88;5052901;28;20048;-35
2021/10/04 08:08:56;;;;;;;3.00;1.10;;;;;;;11.56;88.95;101507.13;5051731;28;20064;-35
2021/10/04 08:11:21;;;;;;;;;;;;;;;11.66;88.60;101520.19;5053517;28;20057;-35
2021/10/04 08:13:50;;;;;;;4.13;1.27;;;;;;;11.65;86.94;101505.81;5053003;28;19944;-35
2021/10/04 08:16:15;;;;;;;4.43;1.20;;;;;;;11.78;87.23;101516.53;5052057;28;20037;-35
2021/10/04 08:18:41;;;;;;;5.78;1.33;;;;;;;11.81;86.82;101504.44;5052996;28;20021;-35
2021/10/04 08:21:06;;;;;;;6.33;1.20;;;;;;;11.93;86.26;101521.63;5053570;28;20021;-35
2021/10/04 08:23:32;;;;;;;4.43;0.97;;;;;;;11.95;86.73;101503.25;5053417;28;20101;-35
2021/10/04 08:25:57;;;;;;;7.47;1.00;;;;;;;12.13;86.19;101512.47;5053732;28;20131;-35
2021/10/04 08:28:22;;;;;;;3.00;1.03;;;;;;;12.19;84.93;101517.00;5052978;28;20087;-35
2021/10/04 08:30:48;;;;;;;5.30;1.27;;;;;;;12.27;84.70;101511.28;5053372;28;20177;-35
2021/10/04 08:33:14;;;;;;;5.45;1.20;;;;;;;12.32;84.31;101506.84;5053183;28;20029;-35
2021/10/04 08:35:40;;;;;;;6.72;1.00;;;;;;;12.42;84.69;101528.00;5053225;28;20069;-35
2021/10/04 08:38:06;;;;;;;4.60;1.20;;;;;;;12.38;84.29;101499.66;5052573;28;20036;-35
2021/10/04 08:40:31;;;;;;;2.77;1.00;;;;;;;12.55;83.65;101522.44;5052883;28;20086;-35
2021/10/04 08:42:57;;;;;;;5.72;1.42;;;;;;;12.61;82.94;101526.94;5051410;28;20541;-35
2021/10/04 08:45:28;;;;;;;8.77;1.42;;;;;;;12.71;83.51;101520.97;5052442;28;20028;-35
2021/10/04 08:47:59;;;;;;;6.50;1.17;;;;;;;12.72;82.92;101500.09;5052069;28;20060;-35
2021/10/04 08:50:28;;;;;;;7.05;1.40;;;;;;;12.87;83.54;101520.31;5052427;28;20100;-35
2021/10/04 08:52:54;;;;;;;8.57;1.30;;;;;;;13.00;82.59;101527.47;5053303;28;20275;-35
2021/10/04 08:55:21;;;;;;;4.53;1.17;;;;;;;13.06;81.90;101521.09;5052662;28;20036;-35
2021/10/04 08:57:47;;;;;;;5.18;1.30;;;;;;;13.09;81.05;101519.81;5052919;28;20369;-35
2021/10/04 09:00:12;;;;;;;4.28;1.60;;;;;;;13.19;82.31;101520.09;5052421;28;20036;-35
2021/10/04 09:02:38;;;;;;;6.28;1.70;;;;;;;13.27;81.31;101519.78;5052670;28;20021;-35
2021/10/04 09:05:25;;;;;;;6.43;1.30;;;;;;;13.35;82.00;101513.19;5052629;28;20479;-35
2021/10/04 09:07:50;;;;;;;6.30;1.17;;;;;;;13.38;80.96;101519.00;5052298;28;20021;-35
2021/10/04 09:10:17;;;;;;;10.07;1.33;;;;;;;13.46;80.62;101517.81;5052205;28;20033;-35
2021/10/04 09:12:51;;;;;;;6.50;1.08;;;;;;;13.62;81.19;101522.56;5053068;28;20248;-35
2021/10/04 09:15:29;;;;;;;5.72;1.15;;;;;;;13.71;79.97;101524.94;5052827;28;20017;-35
2021/10/04 09:17:54;;;;;;;3.15;1.20;;;;;;;13.72;80.56;101505.69;5053220;28;20029;-35
2021/10/04 09:20:20;;;;;;;3.63;1.00;;;;;;;13.81;78.62;101512.44;5055955;28;20020;-35
2021/10/04 09:22:46;;;;;;;6.88;1.10;;;;;;;13.81;79.71;101504.28;5054943;28;20032;-35
2021/10/04 09:25:12;;;;;;;4.88;1.50;;;;;;;13.91;77.93;101515.38;5056592;28;20537;-35
2021/10/04 09:27:40;;;;;;;6.93;1.70;;;;;;;14.08;78.38;101529.06;5056128;28;20020;-35
2021/10/04 09:30:07;;;;;;;3.92;1.40;;;;;;;14.15;77.73;101527.06;5056036;28;20036;-35
2021/10/04 09:32:38;;;;;;;6.65;1.60;;;;;;;14.23;77.39;101523.16;5056121;28;20055;-35
2021/10/04 09:35:27;;;;;;;8.05;1.35;;;;;;;14.40;77.70;101539.56;5055935;28;20017;-35
2021/10/04 09:37:58;;;;;;;7.80;1.25;;;;;;;14.48;77.37;101530.22;5055314;28;20040;-35
2021/10/04 09:40:35;;;;;;;8.85;1.30;;;;;;;14.60;78.27;101531.88;5055938;28;20060;-35
2021/10/04 09:43:04;;;;;;;4.70;1.05;;;;;;;14.61;75.17;101527.25;5056442;28;20033;-35
2021/10/04 09:45:31;;;;;;;9.57;1.42;;;;;;;14.60;74.75;101526.44;5054797;28;20025;-35
2021/10/04 09:48:07;;;;;;;10.82;1.33;;;;;;;14.64;75.19;101530.31;5055704;28;20025;-35
2021/10/04 09:50:32;;;;;;;3.95;1.10;;;;;;;14.67;74.24;101518.94;5055964;28;20039;-35
2021/10/04 09:53:00;;;;;;;6.30;1.17;;;;;;;14.69;73.89;101516.00;5055932;28;20514;-35
2021/10/04 09:55:31;;;;;;;6.55;1.00;;;;;;;14.75;74.23;101506.84;5055596;28;20789;-35
2021/10/04 09:58:15;;;;;;;6.30;1.63;;;;;;;14.87;74.22;101523.94;5055382;28;20116;-35
2021/10/04 10:00:45;;;;;;;4.03;1.08;;;;;;;14.89;74.19;101510.09;5055778;28;20370;-35
2021/10/04 10:03:12;;;;;;;7.00;1.77;;;;;;;14.97;72.90;101523.31;5055491;28;20043;-35
2021/10/04 10:05:41;;;;;;;5.30;1.10;;;;;;;15.06;72.83;101519.13;5055053;28;20033;-35
2021/10/04 10:08:07;;;;;;;6.15;1.00;;;;;;;15.18;73.05;101525.34;5055821;28;20333;-35
2021/10/04 10:10:33;;;;;;;4.85;1.08;;;;;;;15.29;73.08;101522.81;5055035;28;20106;-35
2021/10/04 10:12:58;;;;;;;;;;;;;;;15.45;73.49;101530.16;5055763;28;20107;-35
2021/10/04 10:15:27;;;;;;;5.07;0.90;;;;;;;15.49;71.52;101516.88;5055517;28;20364;-35
2021/10/04 10:18:27;;;;;;;5.15;0.90;;;;;;;15.57;71.07;101517.31;5055625;28;20575;-35
2021/10/04 10:21:01;;;;;;;6.07;0.98;;;;;;;15.51;70.23;101504.66;5032980;28;20044;-35
2021/10/04 10:23:43;;;;;;;6.72;1.60;;;;;;;15.62;70.97;101520.13;5016703;28;20042;-35
2021/10/04 10:26:30;;;;;;;9.43;1.50;;;;;;;15.76;71.71;101515.16;5033555;28;20401;-35
2021/10/04 10:29:12;;;;;;;;;;;;;;;15.88;70.98;101507.72;5033080;28;20474;-35
2021/10/04 10:31:55;;;;;;;5.75;1.20;;;;;;;15.84;70.42;101489.38;5032669;28;19913;-35
2021/10/04 10:34:30;;;;;;;6.63;1.50;;;;;;;15.92;68.82;101519.78;5032871;28;20033;-35
2021/10/04 10:37:04;;;;;;;6.55;1.88;;;;;;;15.83;67.09;101499.47;5032753;28;20036;-35
2021/10/04 10:39:46;;;;;;;7.63;1.52;;;;;;;15.98;67.99;101519.84;5032993;28;20103;-35
2021/10/04 10:42:19;;;;;;;5.45;1.30;;;;;;;16.02;68.48;101519.09;5032448;28;20032;-35
2021/10/04 10:44:56;;;;;;;10.48;1.92;;;;;;;15.94;66.74;101517.63;5032484;28;20043;-35
2021/10/04 10:47:42;;;;;;;8.88;1.80;;;;;;;15.97;67.87;101521.75;5033015;28;20029;-35
2021/10/04 10:50:11;;;;;;;7.40;1.67;;;;;;;15.89;66.12;101530.34;4993448;28;20335;-35
2021/10/04 10:52:54;;;;;;;5.88;1.20;;;;;;;16.04;65.46;101522.41;4993646;28;20062;-35
2021/10/04 10:55:20;;;;;;;11.00;1.77;;;;;;;16.00;65.83;101536.78;4993145;28;20048;-35
2021/10/04 10:58:00;;;;;;;5.77;1.27;;;;;;;16.10;65.67;101534.19;5013707;28;20037;-35
2021/10/04 11:00:37;;;;;;;6.10;1.38;;;;;;;16.14;65.00;101524.44;5032613;28;20209;-35
2021/10/04 11:03:19;;;;;;;7.13;1.77;;;;;;;16.30;66.32;101526.31;5032276;28;20056;-35
2021/10/04 11:06:01;;;;;;;7.63;1.20;;;;;;;16.34;64.71;101511.06;5031894;28;20134;-35
2021/10/04 11:08:29;;;;;;;6.75;1.25;;;;;;;16.46;63.92;101533.63;5032314;28;20071;-35
2021/10/04 11:10:57;;;;;;;5.35;1.20;;;;;;;16.37;64.23;101520.66;5032255;28;20036;-35
2021/10/04 11:13:25;;;;;;;4.63;1.20;;;;;;;16.32;63.16;101539.72;5015605;28;20160;-35
2021/10/04 11:15:52;;;;;;;6.60;1.27;;;;;;;16.38;63.25;101527.78;5031977;28;20064;-35
2021/10/04 11:18:18;;;;;;;2.92;1.02;;;;;;;16.41;62.77;101527.28;5031992;28;20037;-35
2021/10/04 11:20:43;;;;;;;5.00;1.08;;;;;;;16.41;63.41;101527.28;5031726;28;20038;-35
2021/10/04 11:23:22;;;;;;;6.85;1.48;;;;;;;16.53;64.80;101508.84;5031935;28;20113;-35
2021/10/04 11:25:51;;;;;;;5.72;1.10;;;;;;;16.57;63.92;101529.13;5031720;28;20045;-35